sensor_id;sensor_type;location;lat;lon;timestamp;pressure;altitude;pressure_sealevel;temperature;humidity
59939;BME280;45801;51.810;19.444;2022-11-20T00:02:13;98839.52;;;0.97;48.75
59939;BME280;45801;51.810;19.444;2022-11-20T00:04:43;98844.78;;;0.86;48.74
59939;BME280;45801;51.810;19.444;2022-11-20T00:07:16;98840.23;;;0.85;49.50
59939;BME280;45801;51.810;19.444;2022-11-20T00:09:48;98840.31;;;0.89;49.60
59939;BME280;45801;51.810;19.444;2022-11-20T00:12:15;98839.88;;;0.92;49.22
59939;BME280;45801;51.810;19.444;2022-11-20T00:14:42;98836.21;;;0.94;49.37
59939;BME280;45801;51.810;19.444;2022-11-20T00:17:10;98834.03;;;0.97;49.35
59939;BME280;45801;51.810;19.444;2022-11-20T00:19:38;98830.59;;;1.00;49.50
59939;BME280;45801;51.810;19.444;2022-11-20T00:22:04;98829.75;;;1.00;49.61
59939;BME280;45801;51.810;19.444;2022-11-20T00:24:42;98824.23;;;1.02;49.61
59939;BME280;45801;51.810;19.444;2022-11-20T00:27:10;98819.65;;;1.03;49.23
59939;BME280;45801;51.810;19.444;2022-11-20T00:29:38;98820.38;;;1.01;48.93
59939;BME280;45801;51.810;19.444;2022-11-20T00:32:08;98822.35;;;1.02;48.94
59939;BME280;45801;51.810;19.444;2022-11-20T00:34:37;98821.92;;;1.01;48.89
59939;BME280;45801;51.810;19.444;2022-11-20T00:37:33;98819.39;;;0.97;49.09
59939;BME280;45801;51.810;19.444;2022-11-20T00:40:29;98820.39;;;0.97;49.16
59939;BME280;45801;51.810;19.444;2022-11-20T00:43:10;98822.81;;;0.99;49.66
59939;BME280;45801;51.810;19.444;2022-11-20T00:45:37;98822.46;;;1.04;49.65
59939;BME280;45801;51.810;19.444;2022-11-20T00:48:11;98825.08;;;1.07;49.43
59939;BME280;45801;51.810;19.444;2022-11-20T00:50:45;98827.88;;;1.05;49.16
59939;BME280;45801;51.810;19.444;2022-11-20T00:53:20;98832.11;;;1.04;49.48
59939;BME280;45801;51.810;19.444;2022-11-20T00:56:05;98832.99;;;1.02;49.53
59939;BME280;45801;51.810;19.444;2022-11-20T00:58:35;98831.95;;;1.02;49.29
59939;BME280;45801;51.810;19.444;2022-11-20T01:01:17;98830.40;;;1.04;49.27
59939;BME280;45801;51.810;19.444;2022-11-20T01:04:13;98831.15;;;1.07;49.54
59939;BME280;45801;51.810;19.444;2022-11-20T01:06:40;98833.85;;;1.07;49.30
59939;BME280;45801;51.810;19.444;2022-11-20T01:09:16;98827.81;;;1.07;49.05
59939;BME280;45801;51.810;19.444;2022-11-20T01:11:44;98828.13;;;1.08;49.07
59939;BME280;45801;51.810;19.444;2022-11-20T01:14:16;98826.62;;;1.09;48.95
59939;BME280;45801;51.810;19.444;2022-11-20T01:16:48;98828.65;;;1.06;49.23
59939;BME280;45801;51.810;19.444;2022-11-20T01:19:35;98826.69;;;1.05;49.32
59939;BME280;45801;51.810;19.444;2022-11-20T01:22:07;98823.63;;;1.06;49.27
59939;BME280;45801;51.810;19.444;2022-11-20T01:24:43;98819.95;;;1.05;49.29
59939;BME280;45801;51.810;19.444;2022-11-20T01:27:14;98814.80;;;1.03;49.00
59939;BME280;45801;51.810;19.444;2022-11-20T01:29:41;98813.92;;;1.03;49.16
59939;BME280;45801;51.810;19.444;2022-11-20T01:32:08;98813.29;;;1.01;49.10
59939;BME280;45801;51.810;19.444;2022-11-20T01:34:36;98807.60;;;1.01;49.28
59939;BME280;45801;51.810;19.444;2022-11-20T01:37:05;98805.20;;;0.99;49.40
59939;BME280;45801;51.810;19.444;2022-11-20T01:39:34;98802.95;;;0.97;49.42
59939;BME280;45801;51.810;19.444;2022-11-20T01:42:00;98805.23;;;0.97;49.42
59939;BME280;45801;51.810;19.444;2022-11-20T01:44:59;98808.88;;;0.95;49.35
59939;BME280;45801;51.810;19.444;2022-11-20T01:47:40;98808.14;;;0.95;49.34
59939;BME280;45801;51.810;19.444;2022-11-20T01:50:14;98804.52;;;0.92;49.17
59939;BME280;45801;51.810;19.444;2022-11-20T01:52:49;98808.36;;;0.93;49.57
59939;BME280;45801;51.810;19.444;2022-11-20T01:55:26;98810.65;;;0.91;49.64
59939;BME280;45801;51.810;19.444;2022-11-20T01:57:54;98812.09;;;0.92;49.62
59939;BME280;45801;51.810;19.444;2022-11-20T02:00:21;98811.43;;;0.95;49.24
59939;BME280;45801;51.810;19.444;2022-11-20T02:02:52;98814.38;;;0.86;49.11
59939;BME280;45801;51.810;19.444;2022-11-20T02:05:55;98814.00;;;0.81;49.42
59939;BME280;45801;51.810;19.444;2022-11-20T02:08:19;98817.64;;;0.74;49.64
59939;BME280;45801;51.810;19.444;2022-11-20T02:10:46;98817.50;;;0.70;49.67
59939;BME280;45801;51.810;19.444;2022-11-20T02:13:12;98817.95;;;0.69;49.87
59939;BME280;45801;51.810;19.444;2022-11-20T02:15:58;98818.27;;;0.66;49.71
59939;BME280;45801;51.810;19.444;2022-11-20T02:18:26;98814.11;;;0.66;49.71
59939;BME280;45801;51.810;19.444;2022-11-20T02:21:05;98816.80;;;0.69;49.70
59939;BME280;45801;51.810;19.444;2022-11-20T02:23:39;98809.19;;;0.74;49.74
59939;BME280;45801;51.810;19.444;2022-11-20T02:26:07;98809.40;;;0.79;49.80
59939;BME280;45801;51.810;19.444;2022-11-20T02:28:36;98806.93;;;0.78;49.89
59939;BME280;45801;51.810;19.444;2022-11-20T02:31:03;98809.27;;;0.77;49.74
59939;BME280;45801;51.810;19.444;2022-11-20T02:33:29;98808.84;;;0.76;49.54
59939;BME280;45801;51.810;19.444;2022-11-20T02:35:56;98809.46;;;0.78;49.85
59939;BME280;45801;51.810;19.444;2022-11-20T02:38:22;98806.25;;;0.78;49.89
59939;BME280;45801;51.810;19.444;2022-11-20T02:40:49;98808.05;;;0.79;49.78
59939;BME280;45801;51.810;19.444;2022-11-20T02:43:16;98807.63;;;0.81;49.69
59939;BME280;45801;51.810;19.444;2022-11-20T02:45:42;98805.12;;;0.81;49.74
59939;BME280;45801;51.810;19.444;2022-11-20T02:48:09;98799.69;;;0.83;49.81
59939;BME280;45801;51.810;19.444;2022-11-20T02:50:38;98795.23;;;0.85;49.92
59939;BME280;45801;51.810;19.444;2022-11-20T02:53:06;98792.60;;;0.82;49.71
59939;BME280;45801;51.810;19.444;2022-11-20T02:55:33;98793.10;;;0.80;49.80
59939;BME280;45801;51.810;19.444;2022-11-20T02:57:59;98794.67;;;0.80;49.94
59939;BME280;45801;51.810;19.444;2022-11-20T03:00:28;98793.31;;;0.83;49.93
59939;BME280;45801;51.810;19.444;2022-11-20T03:02:54;98793.99;;;0.85;50.00
59939;BME280;45801;51.810;19.444;2022-11-20T03:05:21;98791.69;;;0.86;49.82
59939;BME280;45801;51.810;19.444;2022-11-20T03:07:47;98789.72;;;0.86;50.00
59939;BME280;45801;51.810;19.444;2022-11-20T03:10:14;98786.65;;;0.86;50.22
59939;BME280;45801;51.810;19.444;2022-11-20T03:12:40;98787.11;;;0.90;50.07
59939;BME280;45801;51.810;19.444;2022-11-20T03:15:07;98787.76;;;0.92;50.05
59939;BME280;45801;51.810;19.444;2022-11-20T03:17:33;98787.95;;;0.90;50.05
59939;BME280;45801;51.810;19.444;2022-11-20T03:20:01;98789.40;;;0.91;50.41
59939;BME280;45801;51.810;19.444;2022-11-20T03:22:30;98790.52;;;0.92;50.43
59939;BME280;45801;51.810;19.444;2022-11-20T03:24:57;98787.77;;;0.90;50.31
59939;BME280;45801;51.810;19.444;2022-11-20T03:27:23;98784.78;;;0.89;50.38
59939;BME280;45801;51.810;19.444;2022-11-20T03:29:50;98784.48;;;0.89;50.28
59939;BME280;45801;51.810;19.444;2022-11-20T03:32:16;98789.52;;;0.90;50.34
59939;BME280;45801;51.810;19.444;2022-11-20T03:34:43;98789.58;;;0.88;50.22
59939;BME280;45801;51.810;19.444;2022-11-20T03:37:09;98789.30;;;0.84;50.24
59939;BME280;45801;51.810;19.444;2022-11-20T03:39:36;98788.66;;;0.83;50.61
59939;BME280;45801;51.810;19.444;2022-11-20T03:42:02;98789.55;;;0.81;50.61
59939;BME280;45801;51.810;19.444;2022-11-20T03:44:29;98792.27;;;0.80;50.45
59939;BME280;45801;51.810;19.444;2022-11-20T03:46:55;98799.16;;;0.80;50.41
59939;BME280;45801;51.810;19.444;2022-11-20T03:49:22;98796.67;;;0.79;50.57
59939;BME280;45801;51.810;19.444;2022-11-20T03:51:48;98798.60;;;0.80;50.73
59939;BME280;45801;51.810;19.444;2022-11-20T03:54:14;98796.84;;;0.79;50.79
59939;BME280;45801;51.810;19.444;2022-11-20T03:56:41;98792.50;;;0.79;50.73
59939;BME280;45801;51.810;19.444;2022-11-20T03:59:10;98793.04;;;0.77;50.61
59939;BME280;45801;51.810;19.444;2022-11-20T04:01:37;98794.52;;;0.73;50.71
59939;BME280;45801;51.810;19.444;2022-11-20T04:04:04;98792.25;;;0.71;50.88
59939;BME280;45801;51.810;19.444;2022-11-20T04:06:34;98788.37;;;0.69;51.02
59939;BME280;45801;51.810;19.444;2022-11-20T04:09:02;98783.73;;;0.68;50.84
59939;BME280;45801;51.810;19.444;2022-11-20T04:11:35;98784.26;;;0.63;51.00
59939;BME280;45801;51.810;19.444;2022-11-20T04:14:03;98782.42;;;0.59;51.32
59939;BME280;45801;51.810;19.444;2022-11-20T04:16:33;98785.95;;;0.56;51.39
59939;BME280;45801;51.810;19.444;2022-11-20T04:19:02;98787.86;;;0.56;52.15
59939;BME280;45801;51.810;19.444;2022-11-20T04:21:29;98787.55;;;0.63;51.77
59939;BME280;45801;51.810;19.444;2022-11-20T04:23:57;98786.47;;;0.65;51.59
59939;BME280;45801;51.810;19.444;2022-11-20T04:26:26;98783.67;;;0.64;51.06
59939;BME280;45801;51.810;19.444;2022-11-20T04:28:53;98779.96;;;0.61;51.38
59939;BME280;45801;51.810;19.444;2022-11-20T04:31:28;98777.12;;;0.55;51.34
59939;BME280;45801;51.810;19.444;2022-11-20T04:33:55;98776.34;;;0.47;51.47
59939;BME280;45801;51.810;19.444;2022-11-20T04:36:24;98778.91;;;0.44;51.49
59939;BME280;45801;51.810;19.444;2022-11-20T04:38:52;98777.26;;;0.41;51.70
59939;BME280;45801;51.810;19.444;2022-11-20T04:41:20;98773.39;;;0.38;51.64
59939;BME280;45801;51.810;19.444;2022-11-20T04:43:48;98772.45;;;0.36;51.52
59939;BME280;45801;51.810;19.444;2022-11-20T04:46:20;98773.90;;;0.38;51.71
59939;BME280;45801;51.810;19.444;2022-11-20T04:48:47;98774.30;;;0.38;51.72
59939;BME280;45801;51.810;19.444;2022-11-20T04:51:13;98770.48;;;0.35;51.63
59939;BME280;45801;51.810;19.444;2022-11-20T04:53:41;98767.49;;;0.35;51.75
59939;BME280;45801;51.810;19.444;2022-11-20T04:56:09;98767.07;;;0.34;51.78
59939;BME280;45801;51.810;19.444;2022-11-20T04:58:38;98767.96;;;0.34;51.85
59939;BME280;45801;51.810;19.444;2022-11-20T05:01:23;98765.11;;;0.33;51.95
59939;BME280;45801;51.810;19.444;2022-11-20T05:03:51;98761.48;;;0.32;51.68
59939;BME280;45801;51.810;19.444;2022-11-20T05:06:20;98764.28;;;0.31;51.97
59939;BME280;45801;51.810;19.444;2022-11-20T05:08:47;98762.54;;;0.28;52.06
59939;BME280;45801;51.810;19.444;2022-11-20T05:11:16;98760.89;;;0.25;52.20
59939;BME280;45801;51.810;19.444;2022-11-20T05:13:43;98760.52;;;0.25;52.16
59939;BME280;45801;51.810;19.444;2022-11-20T05:16:12;98761.15;;;0.24;52.29
59939;BME280;45801;51.810;19.444;2022-11-20T05:18:39;98760.80;;;0.19;52.17
59939;BME280;45801;51.810;19.444;2022-11-20T05:21:07;98763.97;;;0.15;52.31
59939;BME280;45801;51.810;19.444;2022-11-20T05:23:34;98767.57;;;0.15;52.67
59939;BME280;45801;51.810;19.444;2022-11-20T05:26:01;98773.05;;;0.17;52.55
59939;BME280;45801;51.810;19.444;2022-11-20T05:28:29;98777.54;;;0.17;52.29
59939;BME280;45801;51.810;19.444;2022-11-20T05:31:07;98776.38;;;0.18;52.26
59939;BME280;45801;51.810;19.444;2022-11-20T05:33:35;98770.91;;;0.21;52.44
59939;BME280;45801;51.810;19.444;2022-11-20T05:36:03;98768.15;;;0.23;52.59
59939;BME280;45801;51.810;19.444;2022-11-20T05:38:30;98763.61;;;0.25;52.40
59939;BME280;45801;51.810;19.444;2022-11-20T05:41:11;98758.48;;;0.25;52.46
59939;BME280;45801;51.810;19.444;2022-11-20T05:43:40;98762.52;;;0.26;52.66
59939;BME280;45801;51.810;19.444;2022-11-20T05:46:09;98766.36;;;0.24;52.68
59939;BME280;45801;51.810;19.444;2022-11-20T05:48:37;98767.17;;;0.24;52.87
59939;BME280;45801;51.810;19.444;2022-11-20T05:51:05;98768.27;;;0.24;52.64
59939;BME280;45801;51.810;19.444;2022-11-20T05:53:34;98767.23;;;0.24;52.62
59939;BME280;45801;51.810;19.444;2022-11-20T05:56:06;98767.23;;;0.17;52.62
59939;BME280;45801;51.810;19.444;2022-11-20T05:58:33;98763.18;;;0.12;52.82
59939;BME280;45801;51.810;19.444;2022-11-20T06:01:20;98757.63;;;0.07;53.03
59939;BME280;45801;51.810;19.444;2022-11-20T06:03:47;98754.59;;;0.03;53.21
59939;BME280;45801;51.810;19.444;2022-11-20T06:06:18;98756.13;;;-0.02;53.44
59939;BME280;45801;51.810;19.444;2022-11-20T06:08:45;98755.64;;;-0.04;53.38
59939;BME280;45801;51.810;19.444;2022-11-20T06:11:14;98751.63;;;-0.06;53.64
59939;BME280;45801;51.810;19.444;2022-11-20T06:13:41;98749.45;;;-0.10;53.83
59939;BME280;45801;51.810;19.444;2022-11-20T06:16:10;98752.77;;;-0.12;53.95
59939;BME280;45801;51.810;19.444;2022-11-20T06:18:37;98756.57;;;-0.14;54.06
59939;BME280;45801;51.810;19.444;2022-11-20T06:21:06;98759.24;;;-0.15;53.93
59939;BME280;45801;51.810;19.444;2022-11-20T06:23:34;98757.39;;;-0.17;53.89
59939;BME280;45801;51.810;19.444;2022-11-20T06:26:03;98756.38;;;-0.19;54.03
59939;BME280;45801;51.810;19.444;2022-11-20T06:28:30;98758.20;;;-0.19;54.22
59939;BME280;45801;51.810;19.444;2022-11-20T06:30:58;98761.77;;;-0.20;54.52
59939;BME280;45801;51.810;19.444;2022-11-20T06:33:26;98759.90;;;-0.20;54.37
59939;BME280;45801;51.810;19.444;2022-11-20T06:35:56;98760.58;;;-0.20;54.24
59939;BME280;45801;51.810;19.444;2022-11-20T06:38:24;98759.83;;;-0.21;54.28
59939;BME280;45801;51.810;19.444;2022-11-20T06:40:51;98756.33;;;-0.22;54.38
59939;BME280;45801;51.810;19.444;2022-11-20T06:43:17;98757.10;;;-0.21;54.49
59939;BME280;45801;51.810;19.444;2022-11-20T06:45:44;98756.62;;;-0.20;54.90
59939;BME280;45801;51.810;19.444;2022-11-20T06:48:10;98756.79;;;-0.18;54.68
59939;BME280;45801;51.810;19.444;2022-11-20T06:50:37;98754.96;;;-0.17;54.90
59939;BME280;45801;51.810;19.444;2022-11-20T06:53:05;98757.79;;;-0.13;54.56
59939;BME280;45801;51.810;19.444;2022-11-20T06:55:31;98758.97;;;-0.09;54.82
59939;BME280;45801;51.810;19.444;2022-11-20T06:57:58;98760.10;;;-0.06;54.63
59939;BME280;45801;51.810;19.444;2022-11-20T07:00:24;98756.46;;;-0.04;54.46
59939;BME280;45801;51.810;19.444;2022-11-20T07:02:51;98754.30;;;-0.03;54.53
59939;BME280;45801;51.810;19.444;2022-11-20T07:05:17;98749.38;;;-0.03;54.38
59939;BME280;45801;51.810;19.444;2022-11-20T07:07:44;98751.29;;;0.00;54.62
59939;BME280;45801;51.810;19.444;2022-11-20T07:10:10;98748.20;;;0.01;54.63
59939;BME280;45801;51.810;19.444;2022-11-20T07:12:37;98744.27;;;0.03;54.67
59939;BME280;45801;51.810;19.444;2022-11-20T07:15:04;98742.91;;;0.06;54.36
59939;BME280;45801;51.810;19.444;2022-11-20T07:17:31;98743.66;;;0.04;54.53
59939;BME280;45801;51.810;19.444;2022-11-20T07:19:57;98743.44;;;0.06;54.33
59939;BME280;45801;51.810;19.444;2022-11-20T07:22:23;98741.45;;;0.09;54.30
59939;BME280;45801;51.810;19.444;2022-11-20T07:24:50;98740.50;;;0.10;54.19
59939;BME280;45801;51.810;19.444;2022-11-20T07:27:16;98740.38;;;0.11;54.32
59939;BME280;45801;51.810;19.444;2022-11-20T07:29:43;98739.58;;;0.14;54.32
59939;BME280;45801;51.810;19.444;2022-11-20T07:32:10;98742.75;;;0.17;54.21
59939;BME280;45801;51.810;19.444;2022-11-20T07:34:37;98741.19;;;0.22;54.18
59939;BME280;45801;51.810;19.444;2022-11-20T07:37:03;98736.64;;;0.21;54.13
59939;BME280;45801;51.810;19.444;2022-11-20T07:39:30;98734.46;;;0.24;54.29
59939;BME280;45801;51.810;19.444;2022-11-20T07:41:58;98729.66;;;0.29;54.19
59939;BME280;45801;51.810;19.444;2022-11-20T07:44:25;98730.59;;;0.32;53.81
59939;BME280;45801;51.810;19.444;2022-11-20T07:46:51;98730.15;;;0.35;53.73
59939;BME280;45801;51.810;19.444;2022-11-20T07:49:18;98728.05;;;0.37;53.84
59939;BME280;45801;51.810;19.444;2022-11-20T07:51:44;98728.31;;;0.41;53.98
59939;BME280;45801;51.810;19.444;2022-11-20T07:54:10;98728.25;;;0.44;53.88
59939;BME280;45801;51.810;19.444;2022-11-20T07:56:37;98723.77;;;0.49;53.89
59939;BME280;45801;51.810;19.444;2022-11-20T07:59:03;98719.38;;;0.55;53.74
59939;BME280;45801;51.810;19.444;2022-11-20T08:01:30;98718.91;;;0.61;53.72
59939;BME280;45801;51.810;19.444;2022-11-20T08:03:57;98715.85;;;0.66;53.58
59939;BME280;45801;51.810;19.444;2022-11-20T08:06:26;98715.27;;;0.69;53.33
59939;BME280;45801;51.810;19.444;2022-11-20T08:08:52;98710.83;;;0.75;53.41
59939;BME280;45801;51.810;19.444;2022-11-20T08:11:19;98707.95;;;0.80;53.49
59939;BME280;45801;51.810;19.444;2022-11-20T08:14:04;98702.17;;;0.84;53.15
59939;BME280;45801;51.810;19.444;2022-11-20T08:16:44;98701.14;;;0.89;52.92
59939;BME280;45801;51.810;19.444;2022-11-20T08:19:12;98703.23;;;0.94;52.81
59939;BME280;45801;51.810;19.444;2022-11-20T08:21:40;98698.23;;;0.98;52.91
59939;BME280;45801;51.810;19.444;2022-11-20T08:24:07;98697.52;;;1.05;52.63
59939;BME280;45801;51.810;19.444;2022-11-20T08:26:36;98691.64;;;1.07;52.05
59939;BME280;45801;51.810;19.444;2022-11-20T08:29:04;98692.64;;;1.05;52.10
59939;BME280;45801;51.810;19.444;2022-11-20T08:31:31;98694.38;;;1.07;52.43
59939;BME280;45801;51.810;19.444;2022-11-20T08:33:58;98690.48;;;1.11;52.11
59939;BME280;45801;51.810;19.444;2022-11-20T08:36:25;98685.31;;;1.13;52.20
59939;BME280;45801;51.810;19.444;2022-11-20T08:38:55;98685.50;;;1.13;51.99
59939;BME280;45801;51.810;19.444;2022-11-20T08:41:22;98683.35;;;1.17;51.99
59939;BME280;45801;51.810;19.444;2022-11-20T08:43:57;98683.71;;;1.22;52.33
59939;BME280;45801;51.810;19.444;2022-11-20T08:46:24;98680.55;;;1.26;52.23
59939;BME280;45801;51.810;19.444;2022-11-20T08:48:52;98678.98;;;1.26;51.30
59939;BME280;45801;51.810;19.444;2022-11-20T08:51:19;98677.94;;;1.24;51.03
59939;BME280;45801;51.810;19.444;2022-11-20T08:53:46;98677.92;;;1.21;51.18
59939;BME280;45801;51.810;19.444;2022-11-20T08:56:15;98680.15;;;1.21;51.43
59939;BME280;45801;51.810;19.444;2022-11-20T08:58:42;98679.90;;;1.22;51.24
59939;BME280;45801;51.810;19.444;2022-11-20T09:01:08;98677.80;;;1.27;51.56
59939;BME280;45801;51.810;19.444;2022-11-20T09:03:36;98675.91;;;1.32;51.81
59939;BME280;45801;51.810;19.444;2022-11-20T09:06:06;98671.98;;;1.39;51.86
59939;BME280;45801;51.810;19.444;2022-11-20T09:08:33;98674.45;;;1.48;51.84
59939;BME280;45801;51.810;19.444;2022-11-20T09:11:02;98666.49;;;1.55;51.38
59939;BME280;45801;51.810;19.444;2022-11-20T09:13:29;98661.58;;;1.61;51.22
59939;BME280;45801;51.810;19.444;2022-11-20T09:15:58;98660.95;;;1.65;50.49
59939;BME280;45801;51.810;19.444;2022-11-20T09:18:27;98658.60;;;1.68;50.56
59939;BME280;45801;51.810;19.444;2022-11-20T09:20:58;98659.86;;;1.66;49.46
59939;BME280;45801;51.810;19.444;2022-11-20T09:23:26;98658.02;;;1.65;50.10
59939;BME280;45801;51.810;19.444;2022-11-20T09:25:53;98661.11;;;1.70;50.79
59939;BME280;45801;51.810;19.444;2022-11-20T09:28:21;98656.29;;;1.75;50.64
59939;BME280;45801;51.810;19.444;2022-11-20T09:30:48;98647.86;;;1.81;49.96
59939;BME280;45801;51.810;19.444;2022-11-20T09:33:14;98643.77;;;1.84;50.08
59939;BME280;45801;51.810;19.444;2022-11-20T09:35:43;98645.02;;;1.84;49.87
59939;BME280;45801;51.810;19.444;2022-11-20T09:38:10;98648.70;;;1.85;49.90
59939;BME280;45801;51.810;19.444;2022-11-20T09:40:44;98650.07;;;1.90;49.81
59939;BME280;45801;51.810;19.444;2022-11-20T09:45:54;98640.30;;;1.99;49.67
59939;BME280;45801;51.810;19.444;2022-11-20T09:48:29;98635.52;;;2.05;49.44
59939;BME280;45801;51.810;19.444;2022-11-20T09:51:58;98632.77;;;2.13;49.18
59939;BME280;45801;51.810;19.444;2022-11-20T09:54:18;98630.15;;;2.23;48.83
59939;BME280;45801;51.810;19.444;2022-11-20T09:56:50;98630.45;;;2.33;48.72
59939;BME280;45801;51.810;19.444;2022-11-20T09:59:33;98629.42;;;2.41;48.30
59939;BME280;45801;51.810;19.444;2022-11-20T10:02:03;98626.48;;;2.49;48.31
59939;BME280;45801;51.810;19.444;2022-11-20T10:04:33;98630.68;;;2.60;48.33
59939;BME280;45801;51.810;19.444;2022-11-20T10:07:08;98627.59;;;2.66;47.47
59939;BME280;45801;51.810;19.444;2022-11-20T10:09:40;98626.41;;;2.75;48.14
59939;BME280;45801;51.810;19.444;2022-11-20T10:12:27;98622.14;;;2.87;47.95
59939;BME280;45801;51.810;19.444;2022-11-20T10:17:46;98617.07;;;3.11;47.82
59939;BME280;45801;51.810;19.444;2022-11-20T10:20:22;98618.59;;;3.21;47.69
59939;BME280;45801;51.810;19.444;2022-11-20T10:23:16;98618.69;;;3.31;46.97
59939;BME280;45801;51.810;19.444;2022-11-20T10:28:40;98612.67;;;3.49;47.42
59939;BME280;45801;51.810;19.444;2022-11-20T10:31:30;98609.70;;;3.54;46.58
59939;BME280;45801;51.810;19.444;2022-11-20T10:34:01;98612.64;;;3.60;45.83
59939;BME280;45801;51.810;19.444;2022-11-20T10:36:47;98614.17;;;3.56;44.31
59939;BME280;45801;51.810;19.444;2022-11-20T10:39:22;98614.84;;;3.62;44.62
59939;BME280;45801;51.810;19.444;2022-11-20T10:41:52;98610.32;;;3.62;43.51
59939;BME280;45801;51.810;19.444;2022-11-20T10:44:22;98604.87;;;3.66;43.85
59939;BME280;45801;51.810;19.444;2022-11-20T10:47:16;98604.21;;;3.69;44.61
59939;BME280;45801;51.810;19.444;2022-11-20T10:49:49;98598.45;;;3.72;43.88
59939;BME280;45801;51.810;19.444;2022-11-20T10:52:32;98592.02;;;3.74;44.75
59939;BME280;45801;51.810;19.444;2022-11-20T10:57:54;98586.81;;;3.89;44.50
59939;BME280;45801;51.810;19.444;2022-11-20T11:00:23;98587.70;;;3.98;43.93
59939;BME280;45801;51.810;19.444;2022-11-20T11:02:52;98590.25;;;3.97;43.17
59939;BME280;45801;51.810;19.444;2022-11-20T11:05:44;98585.73;;;4.00;43.52
59939;BME280;45801;51.810;19.444;2022-11-20T11:08:16;98581.14;;;4.01;42.93
59939;BME280;45801;51.810;19.444;2022-11-20T11:13:22;98579.05;;;4.10;44.13
59939;BME280;45801;51.810;19.444;2022-11-20T11:15:50;98578.71;;;4.16;43.69
59939;BME280;45801;51.810;19.444;2022-11-20T11:18:27;98572.52;;;4.23;43.80
59939;BME280;45801;51.810;19.444;2022-11-20T11:20:55;98572.02;;;4.30;43.69
59939;BME280;45801;51.810;19.444;2022-11-20T11:23:38;98570.83;;;4.33;43.60
59939;BME280;45801;51.810;19.444;2022-11-20T11:26:06;98570.16;;;4.36;43.43
59939;BME280;45801;51.810;19.444;2022-11-20T11:28:33;98563.69;;;4.35;41.79
59939;BME280;45801;51.810;19.444;2022-11-20T11:30:59;98560.52;;;4.40;42.27
59939;BME280;45801;51.810;19.444;2022-11-20T11:33:28;98553.58;;;4.47;42.92
59939;BME280;45801;51.810;19.444;2022-11-20T11:36:01;98556.27;;;4.55;41.88
59939;BME280;45801;51.810;19.444;2022-11-20T11:41:04;98553.15;;;4.64;41.54
59939;BME280;45801;51.810;19.444;2022-11-20T11:43:34;98556.96;;;4.67;42.49
59939;BME280;45801;51.810;19.444;2022-11-20T11:46:25;98551.73;;;4.70;42.96
59939;BME280;45801;51.810;19.444;2022-11-20T11:48:57;98549.42;;;4.69;42.54
59939;BME280;45801;51.810;19.444;2022-11-20T11:54:43;98547.08;;;4.67;43.26
59939;BME280;45801;51.810;19.444;2022-11-20T11:57:26;98549.10;;;4.69;42.45
59939;BME280;45801;51.810;19.444;2022-11-20T12:02:36;98550.08;;;4.58;41.97
59939;BME280;45801;51.810;19.444;2022-11-20T12:05:25;98545.02;;;4.57;43.51
59939;BME280;45801;51.810;19.444;2022-11-20T12:08:03;98542.51;;;4.57;43.85
59939;BME280;45801;51.810;19.444;2022-11-20T12:10:41;98536.61;;;4.56;43.84
59939;BME280;45801;51.810;19.444;2022-11-20T12:13:26;98530.87;;;4.56;43.45
59939;BME280;45801;51.810;19.444;2022-11-20T12:15:57;98532.31;;;4.54;42.32
59939;BME280;45801;51.810;19.444;2022-11-20T12:18:24;98530.05;;;4.51;41.97
59939;BME280;45801;51.810;19.444;2022-11-20T12:29:43;98522.59;;;4.67;43.13
59939;BME280;45801;51.810;19.444;2022-11-20T12:48:48;98499.17;;;4.54;43.52
59939;BME280;45801;51.810;19.444;2022-11-20T12:51:21;98496.45;;;4.52;43.46
59939;BME280;45801;51.810;19.444;2022-11-20T12:54:11;98494.23;;;4.52;44.20
59939;BME280;45801;51.810;19.444;2022-11-20T12:56:49;98488.63;;;4.83;44.50
59939;BME280;45801;51.810;19.444;2022-11-20T13:04:52;98476.66;;;5.30;42.68
59939;BME280;45801;51.810;19.444;2022-11-20T13:07:24;98471.80;;;5.26;43.44
59939;BME280;45801;51.810;19.444;2022-11-20T13:09:53;98469.54;;;5.23;42.99
59939;BME280;45801;51.810;19.444;2022-11-20T13:12:31;98470.16;;;5.21;43.30
59939;BME280;45801;51.810;19.444;2022-11-20T13:17:56;98465.16;;;5.12;43.13
59939;BME280;45801;51.810;19.444;2022-11-20T13:20:24;98463.10;;;5.06;43.56
59939;BME280;45801;51.810;19.444;2022-11-20T13:22:53;98466.00;;;5.02;43.65
59939;BME280;45801;51.810;19.444;2022-11-20T13:25:28;98460.92;;;4.98;43.38
59939;BME280;45801;51.810;19.444;2022-11-20T13:27:57;98458.02;;;4.92;43.04
59939;BME280;45801;51.810;19.444;2022-11-20T13:30:28;98456.59;;;4.85;43.20
59939;BME280;45801;51.810;19.444;2022-11-20T13:33:21;98455.92;;;4.79;43.51
59939;BME280;45801;51.810;19.444;2022-11-20T13:36:01;98453.95;;;4.71;42.84
59939;BME280;45801;51.810;19.444;2022-11-20T13:38:39;98456.99;;;4.66;42.87
59939;BME280;45801;51.810;19.444;2022-11-20T13:41:07;98455.80;;;4.63;42.93
59939;BME280;45801;51.810;19.444;2022-11-20T13:43:58;98452.42;;;4.58;43.19
59939;BME280;45801;51.810;19.444;2022-11-20T13:46:35;98448.38;;;4.51;42.88
59939;BME280;45801;51.810;19.444;2022-11-20T13:49:07;98448.92;;;4.45;43.01
59939;BME280;45801;51.810;19.444;2022-11-20T13:51:49;98447.95;;;4.40;43.33
59939;BME280;45801;51.810;19.444;2022-11-20T13:54:31;98448.99;;;4.33;42.48
59939;BME280;45801;51.810;19.444;2022-11-20T13:57:20;98450.80;;;4.25;43.27
59939;BME280;45801;51.810;19.444;2022-11-20T13:59:59;98447.35;;;4.19;43.23
59939;BME280;45801;51.810;19.444;2022-11-20T14:02:29;98445.04;;;4.15;43.61
59939;BME280;45801;51.810;19.444;2022-11-20T14:05:01;98447.28;;;4.12;43.31
59939;BME280;45801;51.810;19.444;2022-11-20T14:07:35;98448.14;;;4.09;43.50
59939;BME280;45801;51.810;19.444;2022-11-20T14:10:03;98448.17;;;4.06;43.83
59939;BME280;45801;51.810;19.444;2022-11-20T14:12:32;98446.25;;;4.06;43.51
59939;BME280;45801;51.810;19.444;2022-11-20T14:15:00;98443.33;;;4.03;43.71
59939;BME280;45801;51.810;19.444;2022-11-20T14:17:35;98441.88;;;3.99;43.55